sensor_id;sensor_type;location;lat;lon;timestamp;P1;durP1;ratioP1;P2;durP2;ratioP2
48733;SDS011;34530;52.084;5.146;2023-02-15T00:01:23;7.05;;;5.20;;
48733;SDS011;34530;52.084;5.146;2023-02-15T00:03:48;9.27;;;5.88;;
48733;SDS011;34530;52.084;5.146;2023-02-15T00:06:14;6.45;;;4.63;;
48733;SDS011;34530;52.084;5.146;2023-02-15T00:08:40;9.20;;;5.03;;
48733;SDS011;34530;52.084;5.146;2023-02-15T00:11:13;9.15;;;6.32;;
48733;SDS011;34530;52.084;5.146;2023-02-15T00:13:40;9.68;;;6.32;;
48733;SDS011;34530;52.084;5.146;2023-02-15T00:16:10;7.55;;;5.95;;
48733;SDS011;34530;52.084;5.146;2023-02-15T00:18:40;6.75;;;5.63;;
48733;SDS011;34530;52.084;5.146;2023-02-15T00:21:07;7.68;;;5.82;;
48733;SDS011;34530;52.084;5.146;2023-02-15T00:23:34;8.25;;;6.25;;
48733;SDS011;34530;52.084;5.146;2023-02-15T00:28:33;7.80;;;5.68;;
48733;SDS011;34530;52.084;5.146;2023-02-15T00:31:05;7.45;;;6.38;;
48733;SDS011;34530;52.084;5.146;2023-02-15T00:33:36;9.85;;;6.65;;
48733;SDS011;34530;52.084;5.146;2023-02-15T00:36:02;8.57;;;6.05;;
48733;SDS011;34530;52.084;5.146;2023-02-15T00:38:30;8.63;;;6.85;;
48733;SDS011;34530;52.084;5.146;2023-02-15T00:40:57;7.85;;;6.30;;
48733;SDS011;34530;52.084;5.146;2023-02-15T00:43:24;7.57;;;5.90;;
48733;SDS011;34530;52.084;5.146;2023-02-15T00:45:50;9.35;;;5.72;;
48733;SDS011;34530;52.084;5.146;2023-02-15T00:48:16;8.02;;;6.07;;
48733;SDS011;34530;52.084;5.146;2023-02-15T00:50:44;8.32;;;6.00;;
48733;SDS011;34530;52.084;5.146;2023-02-15T00:53:11;8.73;;;5.93;;
48733;SDS011;34530;52.084;5.146;2023-02-15T00:55:37;7.82;;;6.45;;
48733;SDS011;34530;52.084;5.146;2023-02-15T00:58:04;10.20;;;6.30;;
48733;SDS011;34530;52.084;5.146;2023-02-15T01:00:30;6.93;;;6.10;;
48733;SDS011;34530;52.084;5.146;2023-02-15T01:02:56;8.95;;;6.68;;
48733;SDS011;34530;52.084;5.146;2023-02-15T01:05:21;8.02;;;5.78;;
48733;SDS011;34530;52.084;5.146;2023-02-15T01:07:47;9.45;;;6.32;;
48733;SDS011;34530;52.084;5.146;2023-02-15T01:10:13;7.95;;;6.93;;
48733;SDS011;34530;52.084;5.146;2023-02-15T01:12:38;7.55;;;5.88;;
48733;SDS011;34530;52.084;5.146;2023-02-15T01:15:04;7.63;;;6.30;;
48733;SDS011;34530;52.084;5.146;2023-02-15T01:17:30;8.70;;;6.78;;
48733;SDS011;34530;52.084;5.146;2023-02-15T01:19:56;7.45;;;6.10;;
48733;SDS011;34530;52.084;5.146;2023-02-15T01:22:22;7.38;;;6.15;;
48733;SDS011;34530;52.084;5.146;2023-02-15T01:24:50;8.13;;;6.50;;
48733;SDS011;34530;52.084;5.146;2023-02-15T01:27:16;7.40;;;6.20;;
48733;SDS011;34530;52.084;5.146;2023-02-15T01:29:42;7.40;;;6.22;;
48733;SDS011;34530;52.084;5.146;2023-02-15T01:32:08;9.13;;;6.68;;
48733;SDS011;34530;52.084;5.146;2023-02-15T01:34:34;10.88;;;6.25;;
48733;SDS011;34530;52.084;5.146;2023-02-15T01:36:59;10.38;;;5.82;;
48733;SDS011;34530;52.084;5.146;2023-02-15T01:39:25;8.98;;;6.30;;
48733;SDS011;34530;52.084;5.146;2023-02-15T01:41:51;8.73;;;6.60;;
48733;SDS011;34530;52.084;5.146;2023-02-15T01:44:43;8.30;;;6.28;;
48733;SDS011;34530;52.084;5.146;2023-02-15T01:47:36;8.32;;;6.32;;
48733;SDS011;34530;52.084;5.146;2023-02-15T01:50:28;7.85;;;5.85;;
48733;SDS011;34530;52.084;5.146;2023-02-15T01:53:07;10.80;;;6.97;;
48733;SDS011;34530;52.084;5.146;2023-02-15T01:55:40;8.90;;;6.45;;
48733;SDS011;34530;52.084;5.146;2023-02-15T01:58:17;9.48;;;6.45;;
48733;SDS011;34530;52.084;5.146;2023-02-15T02:00:43;8.20;;;6.30;;
48733;SDS011;34530;52.084;5.146;2023-02-15T02:03:09;9.10;;;6.47;;
48733;SDS011;34530;52.084;5.146;2023-02-15T02:05:36;7.35;;;5.80;;
48733;SDS011;34530;52.084;5.146;2023-02-15T02:08:03;8.15;;;6.07;;
48733;SDS011;34530;52.084;5.146;2023-02-15T02:10:29;6.78;;;5.63;;
48733;SDS011;34530;52.084;5.146;2023-02-15T02:12:57;9.23;;;6.47;;
48733;SDS011;34530;52.084;5.146;2023-02-15T02:15:28;8.32;;;6.53;;
48733;SDS011;34530;52.084;5.146;2023-02-15T02:21:07;8.43;;;6.30;;
48733;SDS011;34530;52.084;5.146;2023-02-15T02:23:44;8.35;;;6.25;;
48733;SDS011;34530;52.084;5.146;2023-02-15T02:29:50;8.40;;;6.15;;
48733;SDS011;34530;52.084;5.146;2023-02-15T02:35:12;8.88;;;6.38;;
48733;SDS011;34530;52.084;5.146;2023-02-15T02:46:10;8.73;;;6.43;;
48733;SDS011;34530;52.084;5.146;2023-02-15T02:48:53;8.93;;;6.32;;
48733;SDS011;34530;52.084;5.146;2023-02-15T02:51:19;9.68;;;6.53;;
48733;SDS011;34530;52.084;5.146;2023-02-15T02:53:53;7.72;;;6.32;;
48733;SDS011;34530;52.084;5.146;2023-02-15T02:56:33;8.02;;;6.38;;
48733;SDS011;34530;52.084;5.146;2023-02-15T02:59:19;8.27;;;6.10;;
48733;SDS011;34530;52.084;5.146;2023-02-15T03:01:51;7.50;;;5.95;;
48733;SDS011;34530;52.084;5.146;2023-02-15T03:04:38;6.93;;;5.82;;
48733;SDS011;34530;52.084;5.146;2023-02-15T03:07:17;7.40;;;5.70;;
48733;SDS011;34530;52.084;5.146;2023-02-15T03:09:50;9.27;;;6.57;;
48733;SDS011;34530;52.084;5.146;2023-02-15T03:12:24;11.27;;;6.70;;
48733;SDS011;34530;52.084;5.146;2023-02-15T03:15:01;8.02;;;5.90;;
48733;SDS011;34530;52.084;5.146;2023-02-15T03:17:31;7.93;;;5.90;;
48733;SDS011;34530;52.084;5.146;2023-02-15T03:20:00;11.25;;;6.05;;
48733;SDS011;34530;52.084;5.146;2023-02-15T03:22:31;7.00;;;5.57;;
48733;SDS011;34530;52.084;5.146;2023-02-15T03:25:11;7.35;;;5.97;;
48733;SDS011;34530;52.084;5.146;2023-02-15T03:27:43;7.40;;;6.15;;
48733;SDS011;34530;52.084;5.146;2023-02-15T03:30:12;8.50;;;6.47;;
48733;SDS011;34530;52.084;5.146;2023-02-15T03:32:40;7.10;;;5.93;;
48733;SDS011;34530;52.084;5.146;2023-02-15T03:35:08;6.60;;;5.65;;
48733;SDS011;34530;52.084;5.146;2023-02-15T03:37:50;7.68;;;5.95;;
48733;SDS011;34530;52.084;5.146;2023-02-15T03:46:07;7.35;;;5.90;;
48733;SDS011;34530;52.084;5.146;2023-02-15T03:48:45;7.00;;;5.80;;
48733;SDS011;34530;52.084;5.146;2023-02-15T03:51:18;12.18;;;5.88;;
48733;SDS011;34530;52.084;5.146;2023-02-15T03:53:59;8.07;;;6.35;;
48733;SDS011;34530;52.084;5.146;2023-02-15T03:56:30;10.15;;;6.40;;
48733;SDS011;34530;52.084;5.146;2023-02-15T03:58:57;9.30;;;6.40;;
48733;SDS011;34530;52.084;5.146;2023-02-15T04:02:00;7.20;;;6.13;;
48733;SDS011;34530;52.084;5.146;2023-02-15T04:04:46;7.57;;;5.68;;
48733;SDS011;34530;52.084;5.146;2023-02-15T04:07:12;8.10;;;5.65;;
48733;SDS011;34530;52.084;5.146;2023-02-15T04:09:38;8.18;;;5.72;;
48733;SDS011;34530;52.084;5.146;2023-02-15T04:12:22;8.38;;;6.05;;
48733;SDS011;34530;52.084;5.146;2023-02-15T04:14:48;16.83;;;7.00;;
48733;SDS011;34530;52.084;5.146;2023-02-15T04:17:32;6.63;;;5.93;;
48733;SDS011;34530;52.084;5.146;2023-02-15T04:19:58;8.55;;;5.45;;
48733;SDS011;34530;52.084;5.146;2023-02-15T04:22:42;8.00;;;6.38;;
48733;SDS011;34530;52.084;5.146;2023-02-15T04:25:26;7.97;;;5.45;;
48733;SDS011;34530;52.084;5.146;2023-02-15T04:27:52;7.63;;;5.93;;
48733;SDS011;34530;52.084;5.146;2023-02-15T04:30:20;7.88;;;6.05;;
48733;SDS011;34530;52.084;5.146;2023-02-15T04:32:48;9.85;;;6.32;;
48733;SDS011;34530;52.084;5.146;2023-02-15T04:35:14;7.93;;;5.90;;
48733;SDS011;34530;52.084;5.146;2023-02-15T04:37:40;7.13;;;5.93;;
48733;SDS011;34530;52.084;5.146;2023-02-15T04:40:07;8.27;;;6.47;;
48733;SDS011;34530;52.084;5.146;2023-02-15T04:42:34;8.52;;;6.47;;
48733;SDS011;34530;52.084;5.146;2023-02-15T04:45:00;9.80;;;6.68;;
48733;SDS011;34530;52.084;5.146;2023-02-15T04:47:26;9.27;;;6.05;;
48733;SDS011;34530;52.084;5.146;2023-02-15T04:49:51;8.77;;;6.07;;
48733;SDS011;34530;52.084;5.146;2023-02-15T04:52:17;6.53;;;5.60;;
48733;SDS011;34530;52.084;5.146;2023-02-15T04:54:43;8.18;;;5.88;;
48733;SDS011;34530;52.084;5.146;2023-02-15T04:57:09;8.23;;;5.45;;
48733;SDS011;34530;52.084;5.146;2023-02-15T04:59:35;8.80;;;5.82;;
48733;SDS011;34530;52.084;5.146;2023-02-15T05:02:00;6.60;;;5.93;;
48733;SDS011;34530;52.084;5.146;2023-02-15T05:04:26;8.52;;;6.30;;
48733;SDS011;34530;52.084;5.146;2023-02-15T05:06:51;10.80;;;6.18;;
48733;SDS011;34530;52.084;5.146;2023-02-15T05:09:17;6.90;;;6.18;;
48733;SDS011;34530;52.084;5.146;2023-02-15T05:11:43;8.88;;;6.38;;
48733;SDS011;34530;52.084;5.146;2023-02-15T05:14:08;7.47;;;5.60;;
48733;SDS011;34530;52.084;5.146;2023-02-15T05:16:34;8.02;;;5.57;;
48733;SDS011;34530;52.084;5.146;2023-02-15T05:18:59;6.50;;;5.38;;
48733;SDS011;34530;52.084;5.146;2023-02-15T05:21:25;7.38;;;5.95;;
48733;SDS011;34530;52.084;5.146;2023-02-15T05:23:51;7.72;;;5.65;;
48733;SDS011;34530;52.084;5.146;2023-02-15T05:26:18;8.10;;;6.18;;
48733;SDS011;34530;52.084;5.146;2023-02-15T05:29:05;7.75;;;5.93;;
48733;SDS011;34530;52.084;5.146;2023-02-15T05:31:32;8.45;;;6.25;;
48733;SDS011;34530;52.084;5.146;2023-02-15T05:33:58;6.95;;;5.78;;
48733;SDS011;34530;52.084;5.146;2023-02-15T05:36:24;7.15;;;5.95;;
48733;SDS011;34530;52.084;5.146;2023-02-15T05:38:50;8.05;;;6.45;;
48733;SDS011;34530;52.084;5.146;2023-02-15T05:41:15;10.02;;;6.10;;
48733;SDS011;34530;52.084;5.146;2023-02-15T05:43:41;7.28;;;5.82;;
48733;SDS011;34530;52.084;5.146;2023-02-15T05:46:07;6.93;;;5.38;;
48733;SDS011;34530;52.084;5.146;2023-02-15T05:48:33;7.20;;;5.93;;
48733;SDS011;34530;52.084;5.146;2023-02-15T05:51:04;7.78;;;6.28;;
48733;SDS011;34530;52.084;5.146;2023-02-15T05:53:33;8.43;;;6.15;;
48733;SDS011;34530;52.084;5.146;2023-02-15T05:56:02;7.75;;;6.53;;
48733;SDS011;34530;52.084;5.146;2023-02-15T05:58:29;7.63;;;5.60;;
48733;SDS011;34530;52.084;5.146;2023-02-15T06:00:57;7.25;;;5.95;;
48733;SDS011;34530;52.084;5.146;2023-02-15T06:03:25;9.52;;;6.22;;
48733;SDS011;34530;52.084;5.146;2023-02-15T06:05:53;7.28;;;5.38;;
48733;SDS011;34530;52.084;5.146;2023-02-15T06:08:21;6.88;;;6.10;;
48733;SDS011;34530;52.084;5.146;2023-02-15T06:10:46;8.52;;;6.30;;
48733;SDS011;34530;52.084;5.146;2023-02-15T06:13:12;7.18;;;6.35;;
48733;SDS011;34530;52.084;5.146;2023-02-15T06:15:41;7.60;;;6.00;;
48733;SDS011;34530;52.084;5.146;2023-02-15T06:18:06;7.55;;;5.80;;
48733;SDS011;34530;52.084;5.146;2023-02-15T06:20:32;7.72;;;6.10;;
48733;SDS011;34530;52.084;5.146;2023-02-15T06:23:01;7.70;;;6.15;;
48733;SDS011;34530;52.084;5.146;2023-02-15T06:25:26;7.97;;;6.18;;
48733;SDS011;34530;52.084;5.146;2023-02-15T06:27:52;9.02;;;6.80;;
48733;SDS011;34530;52.084;5.146;2023-02-15T06:30:18;9.02;;;6.50;;
48733;SDS011;34530;52.084;5.146;2023-02-15T06:32:43;7.20;;;6.00;;
48733;SDS011;34530;52.084;5.146;2023-02-15T06:35:09;9.35;;;5.60;;
48733;SDS011;34530;52.084;5.146;2023-02-15T06:37:35;9.80;;;6.63;;
48733;SDS011;34530;52.084;5.146;2023-02-15T06:40:00;7.15;;;6.25;;
48733;SDS011;34530;52.084;5.146;2023-02-15T06:42:26;7.82;;;6.03;;
48733;SDS011;34530;52.084;5.146;2023-02-15T06:44:52;9.43;;;7.10;;
48733;SDS011;34530;52.084;5.146;2023-02-15T06:47:17;7.07;;;6.25;;
48733;SDS011;34530;52.084;5.146;2023-02-15T06:49:43;8.73;;;6.63;;
48733;SDS011;34530;52.084;5.146;2023-02-15T06:52:08;8.40;;;6.68;;
48733;SDS011;34530;52.084;5.146;2023-02-15T06:54:34;8.15;;;6.60;;
48733;SDS011;34530;52.084;5.146;2023-02-15T06:57:00;8.35;;;6.25;;
48733;SDS011;34530;52.084;5.146;2023-02-15T06:59:25;7.15;;;6.28;;
48733;SDS011;34530;52.084;5.146;2023-02-15T07:01:51;7.15;;;5.90;;
48733;SDS011;34530;52.084;5.146;2023-02-15T07:04:16;8.40;;;6.13;;
48733;SDS011;34530;52.084;5.146;2023-02-15T07:06:42;8.88;;;7.13;;
48733;SDS011;34530;52.084;5.146;2023-02-15T07:09:08;8.13;;;6.10;;
48733;SDS011;34530;52.084;5.146;2023-02-15T07:11:33;7.18;;;6.15;;
48733;SDS011;34530;52.084;5.146;2023-02-15T07:14:18;7.28;;;6.00;;
48733;SDS011;34530;52.084;5.146;2023-02-15T07:16:43;8.23;;;6.25;;
48733;SDS011;34530;52.084;5.146;2023-02-15T07:19:09;9.20;;;7.03;;
48733;SDS011;34530;52.084;5.146;2023-02-15T07:21:35;9.25;;;7.10;;
48733;SDS011;34530;52.084;5.146;2023-02-15T07:24:01;7.85;;;5.95;;
48733;SDS011;34530;52.084;5.146;2023-02-15T07:26:27;8.90;;;6.65;;
48733;SDS011;34530;52.084;5.146;2023-02-15T07:28:53;7.72;;;6.10;;
48733;SDS011;34530;52.084;5.146;2023-02-15T07:31:19;8.63;;;6.75;;
48733;SDS011;34530;52.084;5.146;2023-02-15T07:33:44;8.07;;;5.82;;
48733;SDS011;34530;52.084;5.146;2023-02-15T07:36:10;8.02;;;6.75;;
48733;SDS011;34530;52.084;5.146;2023-02-15T07:38:37;9.57;;;7.00;;
48733;SDS011;34530;52.084;5.146;2023-02-15T07:41:06;8.50;;;6.03;;
48733;SDS011;34530;52.084;5.146;2023-02-15T07:43:34;7.97;;;5.82;;
48733;SDS011;34530;52.084;5.146;2023-02-15T07:46:02;7.57;;;6.13;;
48733;SDS011;34530;52.084;5.146;2023-02-15T07:48:30;8.48;;;6.32;;
48733;SDS011;34530;52.084;5.146;2023-02-15T07:50:59;8.63;;;6.20;;
48733;SDS011;34530;52.084;5.146;2023-02-15T07:53:26;6.70;;;6.00;;
48733;SDS011;34530;52.084;5.146;2023-02-15T07:55:52;10.48;;;6.70;;
48733;SDS011;34530;52.084;5.146;2023-02-15T07:58:18;8.57;;;6.45;;
48733;SDS011;34530;52.084;5.146;2023-02-15T08:00:44;9.23;;;6.53;;
48733;SDS011;34530;52.084;5.146;2023-02-15T08:03:25;9.77;;;6.15;;
48733;SDS011;34530;52.084;5.146;2023-02-15T08:05:54;12.15;;;6.18;;
48733;SDS011;34530;52.084;5.146;2023-02-15T08:08:23;8.35;;;6.70;;
48733;SDS011;34530;52.084;5.146;2023-02-15T08:10:59;9.18;;;6.05;;
48733;SDS011;34530;52.084;5.146;2023-02-15T08:13:49;8.63;;;5.95;;
48733;SDS011;34530;52.084;5.146;2023-02-15T08:19:07;8.75;;;6.05;;
48733;SDS011;34530;52.084;5.146;2023-02-15T08:21:33;9.80;;;6.23;;
48733;SDS011;34530;52.084;5.146;2023-02-15T08:24:01;8.98;;;6.22;;
48733;SDS011;34530;52.084;5.146;2023-02-15T08:26:27;9.13;;;6.38;;
48733;SDS011;34530;52.084;5.146;2023-02-15T08:28:54;8.55;;;5.80;;
48733;SDS011;34530;52.084;5.146;2023-02-15T08:31:21;8.30;;;6.32;;
48733;SDS011;34530;52.084;5.146;2023-02-15T08:33:48;7.57;;;5.95;;
48733;SDS011;34530;52.084;5.146;2023-02-15T08:36:16;8.00;;;5.65;;
48733;SDS011;34530;52.084;5.146;2023-02-15T08:38:43;8.70;;;6.03;;
48733;SDS011;34530;52.084;5.146;2023-02-15T08:43:38;9.65;;;6.15;;
48733;SDS011;34530;52.084;5.146;2023-02-15T08:46:04;8.80;;;5.40;;
48733;SDS011;34530;52.084;5.146;2023-02-15T08:48:31;7.18;;;5.53;;
48733;SDS011;34530;52.084;5.146;2023-02-15T08:50:57;7.30;;;5.68;;
48733;SDS011;34530;52.084;5.146;2023-02-15T08:53:23;8.95;;;5.90;;
48733;SDS011;34530;52.084;5.146;2023-02-15T08:55:55;9.02;;;6.15;;
48733;SDS011;34530;52.084;5.146;2023-02-15T08:58:22;8.18;;;5.85;;
48733;SDS011;34530;52.084;5.146;2023-02-15T09:00:47;10.73;;;6.63;;
48733;SDS011;34530;52.084;5.146;2023-02-15T09:03:13;10.77;;;6.57;;
48733;SDS011;34530;52.084;5.146;2023-02-15T09:05:38;7.63;;;5.63;;
48733;SDS011;34530;52.084;5.146;2023-02-15T09:08:04;7.60;;;5.63;;
48733;SDS011;34530;52.084;5.146;2023-02-15T09:10:30;6.72;;;5.85;;
48733;SDS011;34530;52.084;5.146;2023-02-15T09:12:55;7.55;;;6.03;;
48733;SDS011;34530;52.084;5.146;2023-02-15T09:15:21;7.57;;;6.47;;
48733;SDS011;34530;52.084;5.146;2023-02-15T09:17:47;8.52;;;6.05;;
48733;SDS011;34530;52.084;5.146;2023-02-15T09:20:12;9.18;;;6.35;;
48733;SDS011;34530;52.084;5.146;2023-02-15T09:22:38;10.82;;;5.85;;
48733;SDS011;34530;52.084;5.146;2023-02-15T09:25:03;9.80;;;6.05;;
48733;SDS011;34530;52.084;5.146;2023-02-15T09:27:29;7.68;;;6.07;;
48733;SDS011;34530;52.084;5.146;2023-02-15T09:29:55;8.82;;;6.05;;
48733;SDS011;34530;52.084;5.146;2023-02-15T09:32:21;7.97;;;5.95;;
48733;SDS011;34530;52.084;5.146;2023-02-15T09:34:47;8.27;;;6.50;;
48733;SDS011;34530;52.084;5.146;2023-02-15T09:37:13;7.82;;;6.50;;
48733;SDS011;34530;52.084;5.146;2023-02-15T09:39:39;7.32;;;6.10;;
48733;SDS011;34530;52.084;5.146;2023-02-15T10:09:00;9.18;;;6.40;;
48733;SDS011;34530;52.084;5.146;2023-02-15T10:12:11;7.88;;;5.88;;
48733;SDS011;34530;52.084;5.146;2023-02-15T10:25:46;9.20;;;7.13;;
48733;SDS011;34530;52.084;5.146;2023-02-15T10:28:45;7.32;;;6.13;;
48733;SDS011;34530;52.084;5.146;2023-02-15T10:34:00;8.57;;;6.40;;
48733;SDS011;34530;52.084;5.146;2023-02-15T10:36:39;9.85;;;6.45;;
48733;SDS011;34530;52.084;5.146;2023-02-15T10:39:45;7.78;;;6.57;;
48733;SDS011;34530;52.084;5.146;2023-02-15T10:47:51;9.30;;;7.38;;
48733;SDS011;34530;52.084;5.146;2023-02-15T11:01:41;8.68;;;6.50;;
48733;SDS011;34530;52.084;5.146;2023-02-15T11:06:59;9.00;;;6.82;;
48733;SDS011;34530;52.084;5.146;2023-02-15T11:09:56;8.48;;;6.18;;
48733;SDS011;34530;52.084;5.146;2023-02-15T11:12:44;9.25;;;6.22;;
48733;SDS011;34530;52.084;5.146;2023-02-15T11:15:26;9.18;;;6.50;;
48733;SDS011;34530;52.084;5.146;2023-02-15T11:17:58;8.30;;;6.40;;
48733;SDS011;34530;52.084;5.146;2023-02-15T11:23:14;9.85;;;8.18;;
48733;SDS011;34530;52.084;5.146;2023-02-15T11:25:44;8.77;;;7.13;;
48733;SDS011;34530;52.084;5.146;2023-02-15T11:28:23;11.23;;;7.57;;
48733;SDS011;34530;52.084;5.146;2023-02-15T11:31:02;12.10;;;7.55;;
48733;SDS011;34530;52.084;5.146;2023-02-15T11:33:40;9.63;;;7.18;;
48733;SDS011;34530;52.084;5.146;2023-02-15T11:36:13;10.07;;;7.40;;
48733;SDS011;34530;52.084;5.146;2023-02-15T11:38:49;10.95;;;6.80;;
48733;SDS011;34530;52.084;5.146;2023-02-15T11:41:24;13.13;;;8.48;;
48733;SDS011;34530;52.084;5.146;2023-02-15T11:46:58;10.60;;;7.25;;
48733;SDS011;34530;52.084;5.146;2023-02-15T11:52:00;10.10;;;7.53;;
48733;SDS011;34530;52.084;5.146;2023-02-15T11:54:29;9.75;;;7.15;;
48733;SDS011;34530;52.084;5.146;2023-02-15T11:57:03;18.50;;;8.50;;
48733;SDS011;34530;52.084;5.146;2023-02-15T11:59:37;10.45;;;8.13;;
48733;SDS011;34530;52.084;5.146;2023-02-15T12:02:13;9.88;;;7.95;;
48733;SDS011;34530;52.084;5.146;2023-02-15T12:04:43;13.40;;;8.52;;
48733;SDS011;34530;52.084;5.146;2023-02-15T12:10:17;11.68;;;7.47;;
48733;SDS011;34530;52.084;5.146;2023-02-15T12:12:43;11.85;;;7.65;;
48733;SDS011;34530;52.084;5.146;2023-02-15T12:15:09;12.40;;;8.30;;
48733;SDS011;34530;52.084;5.146;2023-02-15T12:17:40;9.52;;;7.30;;
48733;SDS011;34530;52.084;5.146;2023-02-15T12:22:39;10.48;;;8.18;;
48733;SDS011;34530;52.084;5.146;2023-02-15T12:25:20;10.95;;;8.40;;
48733;SDS011;34530;52.084;5.146;2023-02-15T12:31:49;9.38;;;7.95;;
48733;SDS011;34530;52.084;5.146;2023-02-15T12:34:02;9.57;;;6.78;;
48733;SDS011;34530;52.084;5.146;2023-02-15T12:36:43;10.57;;;7.68;;
48733;SDS011;34530;52.084;5.146;2023-02-15T12:39:19;11.32;;;8.32;;
48733;SDS011;34530;52.084;5.146;2023-02-15T12:41:48;10.80;;;8.35;;
48733;SDS011;34530;52.084;5.146;2023-02-15T12:44:40;13.13;;;8.73;;
48733;SDS011;34530;52.084;5.146;2023-02-15T12:47:29;11.85;;;9.00;;
48733;SDS011;34530;52.084;5.146;2023-02-15T12:50:07;9.77;;;7.85;;
48733;SDS011;34530;52.084;5.146;2023-02-15T12:52:41;10.48;;;7.88;;
48733;SDS011;34530;52.084;5.146;2023-02-15T12:55:23;10.70;;;7.70;;
48733;SDS011;34530;52.084;5.146;2023-02-15T12:58:25;11.80;;;8.10;;
48733;SDS011;34530;52.084;5.146;2023-02-15T13:00:45;12.13;;;7.80;;
48733;SDS011;34530;52.084;5.146;2023-02-15T13:03:21;10.10;;;7.57;;
48733;SDS011;34530;52.084;5.146;2023-02-15T13:05:52;10.45;;;7.45;;
48733;SDS011;34530;52.084;5.146;2023-02-15T13:08:32;12.50;;;8.40;;
48733;SDS011;34530;52.084;5.146;2023-02-15T13:11:03;9.35;;;7.80;;
48733;SDS011;34530;52.084;5.146;2023-02-15T13:13:56;9.65;;;7.93;;
48733;SDS011;34530;52.084;5.146;2023-02-15T13:16:33;10.80;;;8.32;;
48733;SDS011;34530;52.084;5.146;2023-02-15T13:19:03;9.25;;;7.90;;
48733;SDS011;34530;52.084;5.146;2023-02-15T13:21:56;10.40;;;7.80;;
48733;SDS011;34530;52.084;5.146;2023-02-15T13:24:43;11.40;;;8.23;;
48733;SDS011;34530;52.084;5.146;2023-02-15T13:27:14;11.27;;;8.00;;
48733;SDS011;34530;52.084;5.146;2023-02-15T13:29:44;10.20;;;7.65;;
48733;SDS011;34530;52.084;5.146;2023-02-15T13:32:20;9.45;;;8.02;;
48733;SDS011;34530;52.084;5.146;2023-02-15T13:34:54;11.20;;;8.07;;
48733;SDS011;34530;52.084;5.146;2023-02-15T13:42:57;13.07;;;8.73;;
48733;SDS011;34530;52.084;5.146;2023-02-15T13:45:32;11.70;;;8.48;;
48733;SDS011;34530;52.084;5.146;2023-02-15T13:55:49;13.02;;;9.50;;
48733;SDS011;34530;52.084;5.146;2023-02-15T13:58:36;12.98;;;9.45;;
48733;SDS011;34530;52.084;5.146;2023-02-15T14:01:31;13.05;;;9.82;;
48733;SDS011;34530;52.084;5.146;2023-02-15T14:20:57;13.63;;;9.00;;
48733;SDS011;34530;52.084;5.146;2023-02-15T14:23:50;15.45;;;9.05;;
48733;SDS011;34530;52.084;5.146;2023-02-15T14:26:28;14.95;;;9.02;;
48733;SDS011;34530;52.084;5.146;2023-02-15T14:29:06;13.68;;;8.65;;
48733;SDS011;34530;52.084;5.146;2023-02-15T14:31:43;12.25;;;9.35;;
48733;SDS011;34530;52.084;5.146;2023-02-15T14:34:20;13.35;;;8.77;;
48733;SDS011;34530;52.084;5.146;2023-02-15T14:36:47;15.68;;;9.55;;
48733;SDS011;34530;52.084;5.146;2023-02-15T14:45:15;13.15;;;8.65;;
48733;SDS011;34530;52.084;5.146;2023-02-15T14:48:14;12.43;;;9.02;;
48733;SDS011;34530;52.084;5.146;2023-02-15T14:50:46;12.65;;;9.57;;
48733;SDS011;34530;52.084;5.146;2023-02-15T15:01:36;12.57;;;9.35;;
48733;SDS011;34530;52.084;5.146;2023-02-15T15:04:04;13.27;;;9.98;;
48733;SDS011;34530;52.084;5.146;2023-02-15T15:06:39;14.48;;;10.82;;
48733;SDS011;34530;52.084;5.146;2023-02-15T15:09:25;11.93;;;9.07;;
48733;SDS011;34530;52.084;5.146;2023-02-15T15:11:54;15.23;;;9.93;;
48733;SDS011;34530;52.084;5.146;2023-02-15T15:14:39;12.00;;;8.88;;
48733;SDS011;34530;52.084;5.146;2023-02-15T15:17:08;12.20;;;9.07;;
48733;SDS011;34530;52.084;5.146;2023-02-15T15:22:18;12.27;;;8.35;;
48733;SDS011;34530;52.084;5.146;2023-02-15T15:24:49;11.20;;;7.97;;
48733;SDS011;34530;52.084;5.146;2023-02-15T15:32:38;10.23;;;7.85;;
48733;SDS011;34530;52.084;5.146;2023-02-15T15:49:05;10.15;;;7.38;;
48733;SDS011;34530;52.084;5.146;2023-02-15T15:51:40;11.02;;;8.48;;
48733;SDS011;34530;52.084;5.146;2023-02-15T15:54:25;8.35;;;7.50;;
48733;SDS011;34530;52.084;5.146;2023-02-15T15:56:56;10.80;;;7.82;;
48733;SDS011;34530;52.084;5.146;2023-02-15T15:59:28;10.13;;;7.97;;
48733;SDS011;34530;52.084;5.146;2023-02-15T16:01:56;11.25;;;8.27;;
48733;SDS011;34530;52.084;5.146;2023-02-15T16:04:30;9.60;;;7.78;;
48733;SDS011;34530;52.084;5.146;2023-02-15T16:06:58;14.25;;;10.10;;
48733;SDS011;34530;52.084;5.146;2023-02-15T16:09:41;14.38;;;9.88;;
48733;SDS011;34530;52.084;5.146;2023-02-15T16:12:17;13.48;;;11.00;;
48733;SDS011;34530;52.084;5.146;2023-02-15T16:14:44;13.65;;;10.23;;
48733;SDS011;34530;52.084;5.146;2023-02-15T16:17:25;16.08;;;10.60;;
48733;SDS011;34530;52.084;5.146;2023-02-15T16:19:56;13.38;;;10.07;;
48733;SDS011;34530;52.084;5.146;2023-02-15T16:22:27;11.52;;;9.25;;
48733;SDS011;34530;52.084;5.146;2023-02-15T16:27:44;11.35;;;9.18;;
48733;SDS011;34530;52.084;5.146;2023-02-15T16:30:18;12.40;;;8.55;;
48733;SDS011;34530;52.084;5.146;2023-02-15T16:32:47;10.45;;;7.90;;
48733;SDS011;34530;52.084;5.146;2023-02-15T16:35:17;9.45;;;7.65;;
48733;SDS011;34530;52.084;5.146;2023-02-15T16:37:44;10.80;;;8.10;;
48733;SDS011;34530;52.084;5.146;2023-02-15T16:40:24;11.95;;;8.10;;
48733;SDS011;34530;52.084;5.146;2023-02-15T16:42:51;14.17;;;9.87;;
48733;SDS011;34530;52.084;5.146;2023-02-15T16:45:23;16.30;;;10.57;;
48733;SDS011;34530;52.084;5.146;2023-02-15T16:47:52;12.77;;;9.55;;
48733;SDS011;34530;52.084;5.146;2023-02-15T16:50:33;13.52;;;9.90;;
48733;SDS011;34530;52.084;5.146;2023-02-15T16:53:01;11.50;;;9.18;;
48733;SDS011;34530;52.084;5.146;2023-02-15T16:55:34;11.90;;;9.00;;
48733;SDS011;34530;52.084;5.146;2023-02-15T16:58:05;13.18;;;9.60;;
48733;SDS011;34530;52.084;5.146;2023-02-15T17:00:36;11.05;;;8.73;;
48733;SDS011;34530;52.084;5.146;2023-02-15T17:08:06;12.05;;;9.27;;
48733;SDS011;34530;52.084;5.146;2023-02-15T17:10:39;15.55;;;10.00;;
48733;SDS011;34530;52.084;5.146;2023-02-15T17:13:11;13.02;;;9.20;;
48733;SDS011;34530;52.084;5.146;2023-02-15T17:15:39;13.32;;;9.48;;
48733;SDS011;34530;52.084;5.146;2023-02-15T17:18:15;11.05;;;8.73;;
48733;SDS011;34530;52.084;5.146;2023-02-15T17:20:45;12.52;;;9.40;;
48733;SDS011;34530;52.084;5.146;2023-02-15T17:25:53;11.68;;;8.23;;
48733;SDS011;34530;52.084;5.146;2023-02-15T17:28:20;11.02;;;9.07;;
48733;SDS011;34530;52.084;5.146;2023-02-15T17:30:49;11.82;;;8.88;;
48733;SDS011;34530;52.084;5.146;2023-02-15T17:36:06;11.40;;;8.68;;
48733;SDS011;34530;52.084;5.146;2023-02-15T17:38:33;11.18;;;8.70;;
48733;SDS011;34530;52.084;5.146;2023-02-15T17:41:00;13.95;;;8.70;;
48733;SDS011;34530;52.084;5.146;2023-02-15T17:43:26;11.50;;;8.63;;
48733;SDS011;34530;52.084;5.146;2023-02-15T17:45:52;12.60;;;8.30;;
48733;SDS011;34530;52.084;5.146;2023-02-15T17:48:22;11.52;;;8.57;;
48733;SDS011;34530;52.084;5.146;2023-02-15T17:50:56;12.65;;;9.63;;
48733;SDS011;34530;52.084;5.146;2023-02-15T17:53:22;10.57;;;8.68;;
48733;SDS011;34530;52.084;5.146;2023-02-15T17:55:49;10.75;;;8.63;;
48733;SDS011;34530;52.084;5.146;2023-02-15T17:58:16;11.30;;;9.70;;
48733;SDS011;34530;52.084;5.146;2023-02-15T18:03:51;10.95;;;9.38;;
48733;SDS011;34530;52.084;5.146;2023-02-15T18:06:36;10.75;;;8.95;;
48733;SDS011;34530;52.084;5.146;2023-02-15T18:09:22;11.70;;;9.15;;
48733;SDS011;34530;52.084;5.146;2023-02-15T18:12:20;12.65;;;9.60;;
48733;SDS011;34530;52.084;5.146;2023-02-15T18:14:51;10.48;;;9.23;;
48733;SDS011;34530;52.084;5.146;2023-02-15T18:17:25;11.68;;;9.23;;
48733;SDS011;34530;52.084;5.146;2023-02-15T18:19:52;12.07;;;8.65;;